Time;durP1;ratioP1;P1;durP2;ratioP2;P2;SDS_P1;SDS_P2;PMS_P1;PMS_P2;Temp;Humidity;BMP_temperature;BMP_pressure;BME280_temperature;BME280_humidity;BME280_pressure;Samples;Min_cycle;Max_cycle;Signal;HPM_P1;HPM_P2
2023/03/21 00:01:18;;;;;;;;;10.25;9.25;;;;;;;;5103908;28;8827;-75
2023/03/21 00:03:43;;;;;;;;;10.25;9.00;;;;;;;;5106012;27;8915;-74
2023/03/21 00:06:10;;;;;;;;;11.00;9.00;;;;;;;;5095896;28;8819;-75
2023/03/21 00:08:35;;;;;;;;;6.75;6.75;;;;;;;;5108026;27;8926;-74
2023/03/21 00:11:02;;;;;;;;;8.00;8.00;;;;;;;;5100824;28;10116;-74
2023/03/21 00:13:31;;;;;;;;;12.00;10.75;;;;;;;;5100575;27;8800;-74
2023/03/21 00:15:56;;;;;;;;;11.50;10.75;;;;;;;;5109157;28;9809;-75
2023/03/21 00:18:23;;;;;;;;;8.75;8.75;;;;;;;;5096101;27;10087;-74
2023/03/21 00:20:58;;;;;;;;;9.00;9.00;;;;;;;;5105936;27;8872;-74
2023/03/21 00:23:24;;;;;;;;;12.25;10.75;;;;;;;;5104564;28;10020;-74
2023/03/21 00:25:50;;;;;;;;;10.25;9.75;;;;;;;;5097085;27;9958;-74
2023/03/21 00:28:15;;;;;;;;;13.25;11.00;;;;;;;;5108879;28;9891;-74
2023/03/21 00:30:40;;;;;;;;;8.00;8.00;;;;;;;;5097473;28;8808;-74
2023/03/21 00:33:05;;;;;;;;;10.00;8.75;;;;;;;;5103148;28;9590;-74
2023/03/21 00:35:31;;;;;;;;;9.75;7.25;;;;;;;;5104555;28;8829;-75
2023/03/21 00:37:56;;;;;;;;;10.75;7.75;;;;;;;;5096106;27;8846;-75
2023/03/21 00:40:21;;;;;;;;;6.00;6.00;;;;;;;;5108465;28;8900;-75
2023/03/21 00:42:46;;;;;;;;;10.25;8.75;;;;;;;;5096884;27;8942;-75
2023/03/21 00:45:12;;;;;;;;;9.50;6.00;;;;;;;;5101784;28;8870;-75
2023/03/21 00:47:37;;;;;;;;;6.75;6.75;;;;;;;;5098596;28;8879;-75
2023/03/21 00:50:03;;;;;;;;;7.50;6.50;;;;;;;;5108415;28;8813;-75
2023/03/21 00:52:30;;;;;;;;;10.75;9.50;;;;;;;;5096306;28;8805;-75
2023/03/21 00:54:55;;;;;;;;;8.25;7.00;;;;;;;;5104399;27;10082;-75
2023/03/21 00:57:20;;;;;;;;;6.75;4.75;;;;;;;;5103601;28;9944;-75
2023/03/21 00:59:45;;;;;;;;;7.50;7.50;;;;;;;;5097369;27;8887;-75
2023/03/21 01:02:13;;;;;;;;;8.00;8.00;;;;;;;;5108773;28;8797;-75
2023/03/21 01:04:39;;;;;;;;;10.25;8.00;;;;;;;;5097670;28;8789;-75
2023/03/21 01:07:04;;;;;;;;;10.00;6.00;;;;;;;;5103160;27;10090;-75
2023/03/21 01:09:29;;;;;;;;;6.50;6.25;;;;;;;;5104543;28;9571;-75
2023/03/21 01:11:54;;;;;;;;;7.25;7.00;;;;;;;;5095831;27;8815;-75
2023/03/21 01:14:21;;;;;;;;;8.25;6.00;;;;;;;;5108477;28;8842;-75
2023/03/21 01:16:46;;;;;;;;;4.25;4.25;;;;;;;;5098728;28;8928;-75
2023/03/21 01:19:14;;;;;;;;;7.00;6.00;;;;;;;;5101755;27;9991;-75
2023/03/21 01:21:40;;;;;;;;;6.75;6.75;;;;;;;;5106063;28;8765;-75
2023/03/21 01:24:05;;;;;;;;;10.00;7.00;;;;;;;;5093381;28;9988;-75
2023/03/21 01:26:30;;;;;;;;;6.25;6.00;;;;;;;;5107555;27;8783;-75
2023/03/21 01:28:56;;;;;;;;;7.00;6.00;;;;;;;;5099819;28;8863;-75
2023/03/21 01:31:21;;;;;;;;;5.00;5.00;;;;;;;;5100151;27;8815;-75
2023/03/21 01:33:46;;;;;;;;;6.25;6.25;;;;;;;;5106827;28;8796;-75
2023/03/21 01:36:20;;;;;;;;;5.00;5.00;;;;;;;;5093056;28;8903;-75
2023/03/21 01:38:45;;;;;;;;;8.00;5.00;;;;;;;;5104780;27;8771;-75
2023/03/21 01:41:20;;;;;;;;;6.50;5.00;;;;;;;;5100049;28;10075;-75
2023/03/21 01:43:46;;;;;;;;;7.50;6.00;;;;;;;;5106478;28;9571;-75
2023/03/21 01:46:26;;;;;;;;;5.75;5.75;;;;;;;;5094760;27;9974;-75
2023/03/21 01:49:03;;;;;;;;;5.75;5.75;;;;;;;;5104174;27;8814;-74
2023/03/21 01:51:32;;;;;;;;;8.25;5.00;;;;;;;;5102428;28;10624;-75
2023/03/21 01:53:57;;;;;;;;;5.25;5.25;;;;;;;;5093803;28;10741;-74
2023/03/21 01:56:28;;;;;;;;;6.00;5.00;;;;;;;;5107922;28;10141;-74
2023/03/21 01:58:56;;;;;;;;;6.00;3.75;;;;;;;;5098436;28;8781;-74
2023/03/21 02:01:21;;;;;;;;;4.50;4.25;;;;;;;;5095210;27;9885;-75
2023/03/21 02:03:51;;;;;;;;;6.00;5.25;;;;;;;;5091625;28;9960;-74
2023/03/21 02:06:35;;;;;;;;;4.50;3.00;;;;;;;;5091290;28;8792;-74
2023/03/21 02:09:03;;;;;;;;;6.00;5.25;;;;;;;;5099537;28;9794;-74
2023/03/21 02:11:29;;;;;;;;;3.75;3.50;;;;;;;;5111529;27;9944;-75
2023/03/21 02:13:54;;;;;;;;;4.00;4.00;;;;;;;;5111623;27;10036;-74
2023/03/21 02:16:25;;;;;;;;;6.25;5.25;;;;;;;;5111572;27;11528;-75
2023/03/21 02:19:11;;;;;;;;;6.00;4.00;;;;;;;;5111473;28;8793;-75
2023/03/21 02:22:01;;;;;;;;;5.75;5.00;;;;;;;;5096996;28;9776;-75
2023/03/21 02:24:39;;;;;;;;;4.50;3.75;;;;;;;;5111503;27;9878;-74
2023/03/21 02:27:17;;;;;;;;;4.50;4.50;;;;;;;;5111586;28;9801;-75
2023/03/21 02:29:45;;;;;;;;;5.50;4.50;;;;;;;;5111399;27;10710;-74
2023/03/21 02:32:12;;;;;;;;;3.75;3.75;;;;;;;;5110182;28;9871;-74
2023/03/21 02:34:57;;;;;;;;;6.00;5.00;;;;;;;;5110894;27;9855;-74
2023/03/21 02:37:27;;;;;;;;;5.75;4.00;;;;;;;;5110885;28;9872;-75
2023/03/21 02:39:55;;;;;;;;;4.75;4.75;;;;;;;;5111284;27;9830;-75
2023/03/21 02:42:27;;;;;;;;;6.25;5.25;;;;;;;;5111194;27;10029;-75
2023/03/21 02:44:55;;;;;;;;;6.50;5.75;;;;;;;;5111398;27;10069;-74
2023/03/21 02:47:26;;;;;;;;;5.00;5.00;;;;;;;;5111227;28;10942;-74
2023/03/21 02:49:54;;;;;;;;;4.00;4.00;;;;;;;;5110852;27;10829;-75
2023/03/21 02:52:21;;;;;;;;;3.00;3.00;;;;;;;;5111080;27;10010;-74
2023/03/21 02:54:48;;;;;;;;;5.25;5.25;;;;;;;;5110996;27;9895;-74
2023/03/21 02:57:16;;;;;;;;;3.00;3.00;;;;;;;;5111532;27;9951;-74
2023/03/21 02:59:41;;;;;;;;;7.00;5.00;;;;;;;;5109988;28;10117;-75
2023/03/21 03:02:07;;;;;;;;;4.00;4.00;;;;;;;;5111628;28;9946;-74
2023/03/21 03:04:32;;;;;;;;;5.75;4.50;;;;;;;;5111230;28;8776;-74
2023/03/21 03:06:57;;;;;;;;;4.00;4.00;;;;;;;;5111833;27;8821;-75
2023/03/21 03:09:22;;;;;;;;;5.00;5.00;;;;;;;;5111667;28;8803;-74
2023/03/21 03:11:53;;;;;;;;;4.50;4.50;;;;;;;;5114122;28;8808;-74
2023/03/21 03:14:36;;;;;;;;;4.25;4.25;;;;;;;;5115667;27;8801;-74
2023/03/21 03:17:04;;;;;;;;;5.50;4.00;;;;;;;;5115521;27;10090;-75
2023/03/21 03:19:31;;;;;;;;;4.75;4.00;;;;;;;;5114468;28;9941;-74
2023/03/21 03:22:02;;;;;;;;;3.50;3.50;;;;;;;;5114333;27;9782;-75
2023/03/21 03:24:31;;;;;;;;;2.50;2.50;;;;;;;;5114328;27;9788;-75
2023/03/21 03:27:01;;;;;;;;;4.00;4.00;;;;;;;;5114300;28;9895;-74
2023/03/21 03:29:27;;;;;;;;;4.00;2.50;;;;;;;;5114105;27;9965;-74
2023/03/21 03:32:00;;;;;;;;;4.00;3.50;;;;;;;;5114104;27;9791;-74
2023/03/21 03:34:31;;;;;;;;;2.00;2.00;;;;;;;;5114075;27;9851;-74
2023/03/21 03:37:01;;;;;;;;;3.75;3.00;;;;;;;;5113628;27;9778;-75
2023/03/21 03:39:32;;;;;;;;;3.25;3.25;;;;;;;;5113747;27;10011;-75
2023/03/21 03:42:01;;;;;;;;;4.00;4.00;;;;;;;;5113899;27;10089;-74
2023/03/21 03:44:27;;;;;;;;;3.00;3.00;;;;;;;;5118168;27;10046;-74
2023/03/21 03:47:02;;;;;;;;;4.75;4.00;;;;;;;;5112593;28;9921;-74
2023/03/21 03:49:35;;;;;;;;;2.00;2.00;;;;;;;;5113014;27;9963;-74
2023/03/21 03:52:08;;;;;;;;;2.00;2.00;;;;;;;;5113778;27;10656;-74
2023/03/21 03:54:38;;;;;;;;;4.00;3.00;;;;;;;;5111481;28;9915;-74
2023/03/21 03:57:04;;;;;;;;;4.00;3.00;;;;;;;;5113232;27;10070;-74
2023/03/21 03:59:32;;;;;;;;;4.75;4.00;;;;;;;;5113387;27;9847;-74
2023/03/21 04:01:57;;;;;;;;;6.00;3.00;;;;;;;;5113242;27;9928;-74
2023/03/21 04:04:27;;;;;;;;;3.25;1.25;;;;;;;;5113521;28;9892;-74
2023/03/21 04:06:56;;;;;;;;;3.00;3.00;;;;;;;;5113146;27;8796;-74
2023/03/21 04:09:21;;;;;;;;;3.25;3.25;;;;;;;;5113256;27;10025;-74
2023/03/21 04:11:47;;;;;;;;;5.00;5.00;;;;;;;;5113444;28;9940;-74
2023/03/21 04:14:12;;;;;;;;;4.25;3.50;;;;;;;;5113450;27;8781;-74
2023/03/21 04:16:37;;;;;;;;;3.75;3.00;;;;;;;;5112915;27;8808;-74
2023/03/21 04:19:03;;;;;;;;;4.00;4.00;;;;;;;;5113691;28;8789;-74
2023/03/21 04:21:28;;;;;;;;;2.50;2.00;;;;;;;;5113194;27;8780;-74
2023/03/21 04:23:54;;;;;;;;;3.50;2.00;;;;;;;;5113499;27;8796;-74
2023/03/21 04:26:20;;;;;;;;;3.50;3.50;;;;;;;;5113688;27;8923;-74
2023/03/21 04:28:45;;;;;;;;;3.50;2.50;;;;;;;;5113563;27;8815;-74
2023/03/21 04:31:12;;;;;;;;;4.00;3.00;;;;;;;;5112431;27;9556;-74
2023/03/21 04:33:37;;;;;;;;;3.00;2.00;;;;;;;;5112683;27;8789;-73
2023/03/21 04:36:05;;;;;;;;;7.75;3.50;;;;;;;;5112818;28;9679;-74
2023/03/21 04:38:32;;;;;;;;;3.00;3.00;;;;;;;;5113268;27;8850;-74
2023/03/21 04:40:57;;;;;;;;;3.00;3.00;;;;;;;;5112628;27;9767;-74
2023/03/21 04:43:22;;;;;;;;;3.00;3.00;;;;;;;;5112889;27;9979;-74
2023/03/21 04:45:48;;;;;;;;;3.75;3.75;;;;;;;;5112830;28;8805;-74
2023/03/21 04:48:13;;;;;;;;;4.50;3.00;;;;;;;;5113105;27;8899;-74
2023/03/21 04:50:38;;;;;;;;;3.25;3.00;;;;;;;;5112731;28;8827;-74
2023/03/21 04:53:04;;;;;;;;;4.75;3.00;;;;;;;;5112826;28;8797;-74
2023/03/21 04:55:30;;;;;;;;;3.00;3.00;;;;;;;;5112886;27;8824;-73
2023/03/21 04:57:55;;;;;;;;;3.00;2.25;;;;;;;;5112148;27;8777;-73
2023/03/21 05:00:22;;;;;;;;;6.50;3.50;;;;;;;;5112583;28;9899;-73
2023/03/21 05:02:47;;;;;;;;;2.00;2.00;;;;;;;;5112872;27;8772;-73
2023/03/21 05:05:12;;;;;;;;;2.25;2.00;;;;;;;;5112628;28;10791;-73
2023/03/21 05:07:38;;;;;;;;;3.00;3.00;;;;;;;;5112625;28;8785;-73
2023/03/21 05:10:04;;;;;;;;;3.00;2.50;;;;;;;;5112565;27;8788;-73
2023/03/21 05:12:30;;;;;;;;;5.50;3.00;;;;;;;;5112719;27;8777;-73
2023/03/21 05:14:55;;;;;;;;;3.25;3.25;;;;;;;;5112329;28;9962;-74
2023/03/21 05:17:23;;;;;;;;;4.50;3.25;;;;;;;;5113001;28;9635;-74
2023/03/21 05:19:49;;;;;;;;;3.50;3.50;;;;;;;;5112649;27;8784;-73
2023/03/21 05:22:18;;;;;;;;;4.75;3.50;;;;;;;;5112647;27;10032;-73
2023/03/21 05:24:48;;;;;;;;;4.00;4.00;;;;;;;;5112422;27;8793;-74
2023/03/21 05:27:24;;;;;;;;;4.00;3.00;;;;;;;;5112556;27;9909;-74
2023/03/21 05:29:50;;;;;;;;;3.50;3.50;;;;;;;;5111999;27;9765;-74
2023/03/21 05:32:15;;;;;;;;;4.25;2.75;;;;;;;;5112425;28;10058;-74
2023/03/21 05:34:40;;;;;;;;;5.00;3.50;;;;;;;;5110979;28;8795;-74
2023/03/21 05:37:05;;;;;;;;;3.00;3.00;;;;;;;;5112216;28;8885;-74
2023/03/21 05:39:30;;;;;;;;;2.75;2.75;;;;;;;;5110814;28;9477;-73
2023/03/21 05:41:56;;;;;;;;;5.75;4.50;;;;;;;;5112002;27;8911;-74
2023/03/21 05:44:21;;;;;;;;;5.00;4.00;;;;;;;;5110626;28;9535;-74
2023/03/21 05:46:46;;;;;;;;;5.00;5.00;;;;;;;;5112143;28;8813;-74
2023/03/21 05:49:11;;;;;;;;;3.00;3.00;;;;;;;;5111960;28;8846;-73
2023/03/21 05:51:37;;;;;;;;;8.00;5.00;;;;;;;;5111894;27;8808;-74
2023/03/21 05:54:02;;;;;;;;;4.75;3.75;;;;;;;;5111810;28;8939;-75
2023/03/21 05:56:27;;;;;;;;;2.75;2.75;;;;;;;;5111943;27;8804;-74
2023/03/21 05:58:53;;;;;;;;;2.75;2.50;;;;;;;;5112116;28;8826;-74
2023/03/21 06:01:18;;;;;;;;;3.50;3.50;;;;;;;;5111803;28;8784;-74
2023/03/21 06:03:43;;;;;;;;;4.00;4.00;;;;;;;;5111895;28;8946;-74
2023/03/21 06:06:09;;;;;;;;;7.00;5.25;;;;;;;;5111373;28;8835;-76
2023/03/21 06:08:34;;;;;;;;;4.25;4.25;;;;;;;;5111294;27;8800;-75
2023/03/21 06:10:59;;;;;;;;;5.25;4.50;;;;;;;;5105301;27;8808;-74
2023/03/21 06:13:25;;;;;;;;;5.50;4.75;;;;;;;;5110348;27;9599;-74
2023/03/21 06:15:50;;;;;;;;;4.75;4.25;;;;;;;;5111193;28;8801;-74
2023/03/21 06:18:15;;;;;;;;;5.00;5.00;;;;;;;;5111561;28;8785;-73
2023/03/21 06:20:40;;;;;;;;;5.00;5.00;;;;;;;;5111444;28;8876;-72
2023/03/21 06:23:06;;;;;;;;;4.00;4.00;;;;;;;;5110917;28;8849;-73
2023/03/21 06:25:31;;;;;;;;;7.50;5.00;;;;;;;;5110530;28;8812;-74
2023/03/21 06:27:56;;;;;;;;;4.00;3.00;;;;;;;;5111141;28;8793;-75
2023/03/21 06:30:21;;;;;;;;;6.00;5.00;;;;;;;;5111447;28;8805;-74
2023/03/21 06:32:46;;;;;;;;;5.25;4.25;;;;;;;;5111208;28;8788;-77
2023/03/21 06:35:12;;;;;;;;;5.00;5.00;;;;;;;;5111027;28;8828;-74
2023/03/21 06:37:37;;;;;;;;;5.50;5.50;;;;;;;;5112024;27;8868;-76
2023/03/21 06:40:04;;;;;;;;;5.50;5.50;;;;;;;;5111877;28;8812;-76
2023/03/21 06:42:29;;;;;;;;;7.25;6.25;;;;;;;;5110502;28;8936;-73
2023/03/21 06:44:54;;;;;;;;;4.50;4.25;;;;;;;;5113105;28;10145;-74
2023/03/21 06:47:20;;;;;;;;;4.50;4.50;;;;;;;;5116307;28;8769;-75
2023/03/21 06:49:45;;;;;;;;;5.75;5.75;;;;;;;;5114861;28;8773;-76
2023/03/21 06:52:10;;;;;;;;;6.50;5.25;;;;;;;;5114621;28;8793;-76
2023/03/21 06:54:36;;;;;;;;;6.75;6.75;;;;;;;;5113201;28;8804;-76
2023/03/21 06:57:01;;;;;;;;;5.00;5.00;;;;;;;;5114653;27;8836;-76
2023/03/21 06:59:26;;;;;;;;;5.25;4.75;;;;;;;;5113058;27;8817;-76
2023/03/21 07:01:52;;;;;;;;;7.00;5.75;;;;;;;;5114498;28;8797;-76
2023/03/21 07:04:17;;;;;;;;;8.25;4.75;;;;;;;;5114533;28;8784;-76
2023/03/21 07:06:42;;;;;;;;;6.50;4.25;;;;;;;;5114481;28;8805;-76
2023/03/21 07:09:08;;;;;;;;;4.25;4.00;;;;;;;;5113005;28;8811;-76
2023/03/21 07:11:34;;;;;;;;;7.25;6.00;;;;;;;;5114239;27;8792;-76
2023/03/21 07:14:00;;;;;;;;;7.25;5.25;;;;;;;;5114279;27;8791;-76
2023/03/21 07:16:25;;;;;;;;;4.25;4.25;;;;;;;;5114093;27;10054;-77
2023/03/21 07:18:50;;;;;;;;;13.25;13.25;;;;;;;;5112692;28;8919;-76
2023/03/21 07:21:16;;;;;;;;;5.50;5.50;;;;;;;;5114265;28;8765;-77
2023/03/21 07:23:41;;;;;;;;;5.75;4.00;;;;;;;;5114326;27;8797;-76
2023/03/21 07:26:07;;;;;;;;;6.00;4.00;;;;;;;;5113245;28;8809;-76
2023/03/21 07:28:32;;;;;;;;;5.00;5.00;;;;;;;;5114122;28;8793;-76
2023/03/21 07:30:59;;;;;;;;;5.00;5.00;;;;;;;;5113894;27;8815;-76
2023/03/21 07:33:24;;;;;;;;;6.00;6.00;;;;;;;;5113995;27;8800;-77
2023/03/21 07:35:50;;;;;;;;;6.50;6.50;;;;;;;;5113598;27;10149;-76
2023/03/21 07:38:16;;;;;;;;;4.50;4.00;;;;;;;;5112955;27;8790;-76
2023/03/21 07:40:42;;;;;;;;;6.00;6.00;;;;;;;;5115003;27;11448;-76
2023/03/21 07:43:07;;;;;;;;;6.25;6.25;;;;;;;;5111231;27;11495;-76
2023/03/21 07:45:33;;;;;;;;;6.50;6.25;;;;;;;;5107608;27;8825;-76
2023/03/21 07:47:58;;;;;;;;;9.00;9.00;;;;;;;;5129809;27;9567;-76
2023/03/21 07:50:23;;;;;;;;;8.00;7.00;;;;;;;;5119461;27;8809;-76
2023/03/21 07:52:48;;;;;;;;;8.00;7.00;;;;;;;;5128360;27;8774;-76
2023/03/21 07:55:16;;;;;;;;;8.25;7.50;;;;;;;;5111978;27;8840;-76
2023/03/21 07:57:41;;;;;;;;;8.50;8.50;;;;;;;;5117838;27;8858;-76
2023/03/21 08:00:07;;;;;;;;;9.50;7.25;;;;;;;;5122925;27;10067;-75
2023/03/21 08:02:33;;;;;;;;;5.25;5.25;;;;;;;;5122423;27;8820;-73
2023/03/21 08:04:58;;;;;;;;;8.75;8.00;;;;;;;;5102227;27;9883;-74
2023/03/21 08:07:23;;;;;;;;;7.25;7.00;;;;;;;;5115999;27;8798;-77
2023/03/21 08:09:48;;;;;;;;;10.00;9.00;;;;;;;;5106761;27;9566;-76
2023/03/21 08:12:14;;;;;;;;;7.00;6.50;;;;;;;;5104664;27;8789;-76
2023/03/21 08:14:39;;;;;;;;;9.00;9.00;;;;;;;;5102106;27;8912;-76
2023/03/21 08:17:05;;;;;;;;;12.50;11.75;;;;;;;;5089838;27;8900;-75
2023/03/21 08:19:30;;;;;;;;;9.00;9.00;;;;;;;;5094591;27;8928;-75
2023/03/21 08:21:58;;;;;;;;;6.75;6.75;;;;;;;;5096830;28;8816;-75
2023/03/21 08:24:24;;;;;;;;;8.50;8.50;;;;;;;;5100363;27;8779;-75
2023/03/21 08:26:49;;;;;;;;;6.00;6.00;;;;;;;;5092503;28;10142;-75
2023/03/21 08:29:15;;;;;;;;;8.00;6.50;;;;;;;;5108013;28;8792;-76
2023/03/21 08:31:40;;;;;;;;;8.25;7.25;;;;;;;;5095995;27;8861;-75
2023/03/21 08:34:06;;;;;;;;;9.00;8.00;;;;;;;;5106286;28;8961;-75
2023/03/21 08:36:32;;;;;;;;;7.50;6.50;;;;;;;;5101862;28;8820;-76
2023/03/21 08:39:04;;;;;;;;;6.50;6.50;;;;;;;;5112905;27;10821;-75
2023/03/21 08:41:33;;;;;;;;;7.50;6.50;;;;;;;;5095271;27;11531;-76
2023/03/21 08:43:58;;;;;;;;;10.00;10.00;;;;;;;;5090879;28;10077;-76
2023/03/21 08:46:24;;;;;;;;;9.75;9.50;;;;;;;;5096257;27;10282;-76
2023/03/21 08:48:49;;;;;;;;;6.25;6.00;;;;;;;;5100461;27;8835;-76
2023/03/21 08:51:14;;;;;;;;;6.00;6.00;;;;;;;;5113949;27;8787;-76
2023/03/21 08:53:40;;;;;;;;;9.25;6.25;;;;;;;;5111479;27;8837;-76
2023/03/21 08:56:06;;;;;;;;;9.00;8.00;;;;;;;;5097172;28;8916;-76
2023/03/21 08:58:31;;;;;;;;;10.75;8.75;;;;;;;;5105498;27;11424;-75
2023/03/21 09:00:56;;;;;;;;;4.25;4.25;;;;;;;;5104399;27;8888;-76
2023/03/21 09:03:21;;;;;;;;;6.75;5.25;;;;;;;;5102644;27;8808;-76
2023/03/21 09:05:46;;;;;;;;;6.75;4.00;;;;;;;;5095246;28;8919;-75
2023/03/21 09:08:12;;;;;;;;;5.75;4.50;;;;;;;;5104414;28;8815;-75
2023/03/21 09:10:37;;;;;;;;;8.00;5.75;;;;;;;;5092606;27;8867;-76
2023/03/21 09:13:03;;;;;;;;;6.00;4.75;;;;;;;;5104716;27;8840;-75
2023/03/21 09:15:28;;;;;;;;;7.25;5.75;;;;;;;;5091604;28;8922;-75
2023/03/21 09:17:57;;;;;;;;;2.50;2.50;;;;;;;;5095980;28;8813;-75
2023/03/21 09:20:29;;;;;;;;;7.75;6.75;;;;;;;;5102720;28;8814;-75
2023/03/21 09:22:55;;;;;;;;;4.00;4.00;;;;;;;;5091723;28;10003;-75
2023/03/21 09:25:21;;;;;;;;;3.50;3.50;;;;;;;;5108412;28;9857;-75
2023/03/21 09:27:46;;;;;;;;;6.00;4.75;;;;;;;;5095149;27;9893;-75
2023/03/21 09:30:12;;;;;;;;;5.50;5.50;;;;;;;;5103608;28;8816;-75
2023/03/21 09:32:38;;;;;;;;;4.00;4.00;;;;;;;;5101465;27;8810;-75
2023/03/21 09:35:04;;;;;;;;;5.75;5.75;;;;;;;;5113322;27;8882;-75
2023/03/21 09:37:31;;;;;;;;;5.00;5.00;;;;;;;;5109075;27;9787;-76
2023/03/21 09:39:57;;;;;;;;;6.75;5.75;;;;;;;;5095959;28;8803;-76
2023/03/21 09:42:41;;;;;;;;;4.50;4.50;;;;;;;;5103442;27;9965;-75
2023/03/21 09:45:15;;;;;;;;;7.00;6.25;;;;;;;;5097415;27;8813;-75
2023/03/21 09:47:51;;;;;;;;;6.50;5.25;;;;;;;;5092303;28;10049;-76
2023/03/21 09:50:26;;;;;;;;;4.00;4.00;;;;;;;;5100370;27;9791;-75
2023/03/21 09:52:51;;;;;;;;;5.75;4.50;;;;;;;;5090817;28;9869;-75
2023/03/21 09:55:21;;;;;;;;;8.50;6.25;;;;;;;;5106705;28;10053;-75
2023/03/21 09:57:48;;;;;;;;;8.50;7.50;;;;;;;;5093487;28;8895;-76
2023/03/21 10:00:19;;;;;;;;;6.25;6.25;;;;;;;;5104396;27;9955;-75
2023/03/21 10:02:49;;;;;;;;;5.50;4.50;;;;;;;;5102259;28;9965;-75
2023/03/21 10:05:14;;;;;;;;;3.75;3.00;;;;;;;;5095323;27;9881;-76
2023/03/21 10:07:43;;;;;;;;;7.00;5.50;;;;;;;;5106663;28;9838;-76
2023/03/21 10:10:14;;;;;;;;;5.25;4.00;;;;;;;;5097742;28;8847;-75
2023/03/21 10:12:40;;;;;;;;;6.50;5.00;;;;;;;;5100948;27;9923;-76
2023/03/21 10:15:11;;;;;;;;;4.50;4.25;;;;;;;;5106656;28;9817;-76
2023/03/21 10:17:56;;;;;;;;;4.25;2.00;;;;;;;;5094572;27;9800;-75
2023/03/21 10:20:24;;;;;;;;;6.75;5.50;;;;;;;;5082140;27;9856;-75
2023/03/21 10:22:51;;;;;;;;;5.75;5.75;;;;;;;;5097019;27;10027;-76
2023/03/21 10:25:23;;;;;;;;;4.00;4.00;;;;;;;;5090926;28;9656;-75
2023/03/21 10:27:50;;;;;;;;;2.50;2.50;;;;;;;;5100478;27;9782;-75
2023/03/21 10:30:23;;;;;;;;;5.00;4.00;;;;;;;;5091437;28;9801;-75
2023/03/21 10:32:49;;;;;;;;;5.25;5.25;;;;;;;;5097502;27;9797;-75
2023/03/21 10:35:14;;;;;;;;;4.50;3.50;;;;;;;;5094335;28;10779;-75
2023/03/21 10:37:39;;;;;;;;;4.00;2.75;;;;;;;;5094576;28;8834;-76
2023/03/21 10:40:07;;;;;;;;;4.25;3.50;;;;;;;;5097093;27;8834;-75
2023/03/21 10:42:35;;;;;;;;;4.00;4.00;;;;;;;;5099562;27;8872;-76
2023/03/21 10:45:00;;;;;;;;;3.75;3.00;;;;;;;;5098844;27;9662;-75
2023/03/21 10:47:27;;;;;;;;;3.00;3.00;;;;;;;;5100457;27;10511;-75
2023/03/21 10:49:52;;;;;;;;;4.00;4.00;;;;;;;;5094712;28;8796;-75
2023/03/21 10:52:20;;;;;;;;;3.75;3.75;;;;;;;;5095143;28;9615;-76
2023/03/21 10:54:47;;;;;;;;;1.50;1.50;;;;;;;;5088936;27;8783;-75
2023/03/21 10:57:14;;;;;;;;;3.25;3.25;;;;;;;;5095679;28;9631;-75
2023/03/21 10:59:40;;;;;;;;;3.75;3.75;;;;;;;;5093303;28;9717;-76
2023/03/21 11:02:05;;;;;;;;;4.00;4.00;;;;;;;;5101968;28;9769;-76
2023/03/21 11:04:31;;;;;;;;;6.50;4.25;;;;;;;;5098661;27;8804;-76
2023/03/21 11:06:58;;;;;;;;;3.00;3.00;;;;;;;;5093140;27;8839;-76
2023/03/21 11:09:25;;;;;;;;;4.00;4.00;;;;;;;;5102863;27;8792;-77
2023/03/21 11:12:10;;;;;;;;;4.75;4.25;;;;;;;;5088824;27;10450;-74
2023/03/21 11:14:35;;;;;;;;;6.25;3.50;;;;;;;;5105997;27;9687;-76
2023/03/21 11:17:00;;;;;;;;;4.00;3.00;;;;;;;;5106608;27;10017;-74
2023/03/21 11:19:29;;;;;;;;;4.25;4.25;;;;;;;;5090334;28;8824;-75
2023/03/21 11:21:55;;;;;;;;;7.75;6.00;;;;;;;;5104862;27;8776;-74
2023/03/21 11:24:21;;;;;;;;;7.50;6.50;;;;;;;;5096118;27;9879;-74
2023/03/21 11:26:48;;;;;;;;;5.00;5.00;;;;;;;;5098537;27;9899;-74
2023/03/21 11:29:13;;;;;;;;;8.50;6.00;;;;;;;;5105081;28;8792;-74
2023/03/21 11:31:39;;;;;;;;;5.25;5.25;;;;;;;;5093390;28;9873;-75
2023/03/21 11:34:06;;;;;;;;;7.00;6.75;;;;;;;;5108052;27;8804;-74
2023/03/21 11:36:32;;;;;;;;;6.50;6.00;;;;;;;;5102384;28;8813;-75
2023/03/21 11:39:01;;;;;;;;;5.50;5.50;;;;;;;;5100331;27;9870;-75
2023/03/21 11:41:30;;;;;;;;;8.00;7.00;;;;;;;;5109561;27;9649;-74
2023/03/21 11:43:56;;;;;;;;;9.75;5.00;;;;;;;;5095407;27;9857;-75
2023/03/21 11:46:23;;;;;;;;;3.75;3.75;;;;;;;;5101292;28;9800;-76
2023/03/21 11:48:48;;;;;;;;;5.00;5.00;;;;;;;;5101370;27;8787;-75
2023/03/21 11:51:13;;;;;;;;;7.00;5.75;;;;;;;;5108688;28;9711;-75
2023/03/21 11:53:40;;;;;;;;;5.25;5.25;;;;;;;;5095265;28;8838;-75
2023/03/21 11:56:15;;;;;;;;;7.25;5.25;;;;;;;;5107263;27;8827;-76
2023/03/21 11:59:00;;;;;;;;;4.25;4.25;;;;;;;;5102752;28;9836;-76
2023/03/21 12:01:44;;;;;;;;;2.00;2.00;;;;;;;;5104921;27;9895;-75
2023/03/21 12:04:19;;;;;;;;;2.00;1.00;;;;;;;;5097296;27;9775;-75
2023/03/21 12:06:53;;;;;;;;;4.00;3.00;;;;;;;;5092280;28;9697;-74
2023/03/21 12:09:28;;;;;;;;;5.00;3.00;;;;;;;;5108007;28;9693;-76
2023/03/21 12:11:56;;;;;;;;;3.25;2.75;;;;;;;;5091674;28;9845;-74
2023/03/21 12:14:41;;;;;;;;;4.50;3.25;;;;;;;;5100267;28;9843;-76
2023/03/21 12:17:12;;;;;;;;;1.50;1.50;;;;;;;;5097211;27;9648;-75
2023/03/21 12:19:56;;;;;;;;;3.75;3.75;;;;;;;;5108926;28;9684;-76
2023/03/21 12:22:33;;;;;;;;;3.50;3.50;;;;;;;;5092079;27;9637;-75
2023/03/21 12:25:08;;;;;;;;;3.75;3.00;;;;;;;;5098020;27;9806;-76
2023/03/21 12:27:40;;;;;;;;;4.00;4.00;;;;;;;;5092456;27;9729;-74
2023/03/21 12:30:24;;;;;;;;;2.25;2.25;;;;;;;;5095480;27;9927;-74
2023/03/21 12:33:13;;;;;;;;;6.50;5.00;;;;;;;;5104448;28;9593;-75
2023/03/21 12:36:11;;;;;;;;;5.50;5.00;;;;;;;;5100789;27;9874;-74
2023/03/21 12:38:42;;;;;;;;;4.75;4.75;;;;;;;;5032338;28;9876;-74
2023/03/21 12:41:26;;;;;;;;;6.75;6.75;;;;;;;;5062643;28;9885;-75
2023/03/21 12:44:00;;;;;;;;;4.25;4.00;;;;;;;;5029121;28;9915;-75
2023/03/21 12:46:47;;;;;;;;;6.00;5.00;;;;;;;;5038077;28;9661;-75
2023/03/21 12:49:21;;;;;;;;;6.50;6.25;;;;;;;;5034207;28;9867;-75
2023/03/21 12:51:48;;;;;;;;;4.75;4.75;;;;;;;;5045869;28;9921;-75
2023/03/21 12:54:27;;;;;;;;;6.75;6.75;;;;;;;;5036188;28;9799;-75
2023/03/21 12:56:52;;;;;;;;;6.50;6.50;;;;;;;;5036853;28;9735;-75
2023/03/21 12:59:20;;;;;;;;;6.75;6.00;;;;;;;;5044822;28;10815;-75
2023/03/21 13:01:49;;;;;;;;;6.00;6.00;;;;;;;;5032788;28;8785;-74
2023/03/21 13:04:29;;;;;;;;;8.00;6.25;;;;;;;;5042150;28;9656;-75
2023/03/21 13:06:56;;;;;;;;;3.25;3.00;;;;;;;;5041324;28;10039;-75
2023/03/21 13:09:26;;;;;;;;;7.25;4.50;;;;;;;;5032881;28;9780;-75
2023/03/21 13:11:56;;;;;;;;;5.25;5.25;;;;;;;;5032795;28;10461;-76
2023/03/21 13:14:27;;;;;;;;;6.75;6.00;;;;;;;;5081036;28;9691;-75
2023/03/21 13:16:56;;;;;;;;;4.50;4.50;;;;;;;;5099290;27;9732;-74
2023/03/21 13:19:44;;;;;;;;;3.00;3.00;;;;;;;;5108160;28;9799;-75
2023/03/21 13:22:26;;;;;;;;;6.00;5.00;;;;;;;;5091976;28;9737;-75
2023/03/21 13:24:58;;;;;;;;;2.25;2.25;;;;;;;;5091020;28;9953;-74
2023/03/21 13:27:23;;;;;;;;;3.50;3.50;;;;;;;;5107722;28;9712;-75
2023/03/21 13:29:53;;;;;;;;;5.00;4.75;;;;;;;;5094675;28;9817;-75
2023/03/21 13:32:28;;;;;;;;;4.25;4.25;;;;;;;;5104086;27;9385;-75
2023/03/21 13:34:55;;;;;;;;;3.00;3.00;;;;;;;;5103712;28;9795;-75
2023/03/21 13:37:20;;;;;;;;;3.75;3.75;;;;;;;;5095244;27;9643;-75
2023/03/21 13:39:46;;;;;;;;;2.75;2.75;;;;;;;;5107985;28;9746;-77
2023/03/21 13:42:17;;;;;;;;;2.00;2.00;;;;;;;;5089920;27;8850;-73
2023/03/21 13:44:47;;;;;;;;;2.50;2.50;;;;;;;;5102216;28;8777;-74
2023/03/21 13:47:38;;;;;;;;;2.50;2.50;;;;;;;;5096362;27;9638;-74
2023/03/21 13:50:21;;;;;;;;;3.00;3.00;;;;;;;;5104880;27;9650;-74
2023/03/21 13:53:07;;;;;;;;;3.00;3.00;;;;;;;;5091472;28;9793;-76
2023/03/21 13:55:43;;;;;;;;;3.50;3.50;;;;;;;;5107687;28;9835;-76
2023/03/21 13:58:27;;;;;;;;;2.75;2.50;;;;;;;;5099343;28;9619;-76
2023/03/21 14:01:09;;;;;;;;;5.00;4.00;;;;;;;;5101241;28;9594;-76
2023/03/21 14:03:34;;;;;;;;;5.25;3.50;;;;;;;;5116708;27;9721;-76
2023/03/21 14:05:59;;;;;;;;;1.75;1.75;;;;;;;;5107795;28;9651;-77
2023/03/21 14:08:26;;;;;;;;;3.25;2.50;;;;;;;;5096620;27;8844;-75
2023/03/21 14:10:55;;;;;;;;;2.33;1.67;;;;;;;;5100324;27;8793;-75
2023/03/21 14:13:23;;;;;;;;;1.67;1.67;;;;;;;;5104330;27;9474;-75
2023/03/21 14:15:48;;;;;;;;;1.00;1.00;;;;;;;;5102888;27;9615;-75
2023/03/21 14:18:14;;;;;;;;;1.00;1.00;;;;;;;;5092678;27;10239;-74
2023/03/21 14:20:40;;;;;;;;;1.00;1.00;;;;;;;;5103786;27;9644;-74
2023/03/21 14:23:07;;;;;;;;;2.00;2.00;;;;;;;;5107666;27;8774;-74
2023/03/21 14:25:37;;;;;;;;;0.67;0.67;;;;;;;;5106457;27;9521;-74
2023/03/21 14:28:04;;;;;;;;;1.00;1.00;;;;;;;;5092899;27;9557;-74
2023/03/21 14:30:32;;;;;;;;;1.00;1.00;;;;;;;;5091602;27;9573;-75
2023/03/21 14:33:18;;;;;;;;;2.00;2.00;;;;;;;;5090485;28;9708;-74
2023/03/21 14:35:45;;;;;;;;;1.00;0.50;;;;;;;;5107136;28;9549;-75
2023/03/21 14:38:18;;;;;;;;;2.00;1.00;;;;;;;;5095689;28;9479;-74
2023/03/21 14:40:48;;;;;;;;;0.50;0.50;;;;;;;;5098802;27;9553;-75
2023/03/21 14:43:13;;;;;;;;;1.67;1.00;;;;;;;;5090874;27;9522;-75
2023/03/21 14:45:38;;;;;;;;;1.00;1.00;;;;;;;;5107330;28;9414;-74
2023/03/21 14:48:10;;;;;;;;;0.00;0.00;;;;;;;;5095866;28;9682;-74
2023/03/21 14:50:41;;;;;;;;;1.67;1.00;;;;;;;;5100014;27;8784;-74
2023/03/21 14:53:13;;;;;;;;;2.00;2.00;;;;;;;;5093178;27;9406;-74
2023/03/21 14:56:01;;;;;;;;;0.00;0.00;;;;;;;;5089645;28;9410;-75
2023/03/21 14:58:27;;;;;;;;;0.67;0.67;;;;;;;;5094077;27;9502;-74
2023/03/21 15:00:55;;;;;;;;;1.00;1.00;;;;;;;;5090997;27;9416;-75